createdAt,value
2022-11-28T00:01:34.913Z,4.22
2022-11-28T00:04:01.544Z,4.28
2022-11-28T00:06:28.685Z,4.57
2022-11-28T00:08:58.554Z,4.25
2022-11-28T00:11:25.120Z,4.60
2022-11-28T00:13:53.784Z,4.18
2022-11-28T00:16:22.267Z,4.20
2022-11-28T00:18:49.519Z,4.30
2022-11-28T00:21:16.143Z,4.38
2022-11-28T00:23:44.142Z,4.65
2022-11-28T00:26:17.857Z,4.47
2022-11-28T00:28:44.674Z,4.78
2022-11-28T00:31:14.474Z,4.80
2022-11-28T00:33:41.462Z,4.60
2022-11-28T00:36:08.339Z,4.68
2022-11-28T00:38:34.970Z,5.55
2022-11-28T00:41:03.445Z,4.78
2022-11-28T00:43:30.102Z,4.75
2022-11-28T00:45:57.129Z,5.10
2022-11-28T00:48:26.044Z,4.93
2022-11-28T00:50:53.523Z,4.35
2022-11-28T00:53:20.041Z,5.18
2022-11-28T00:55:46.778Z,4.53
2022-11-28T00:58:13.451Z,4.50
2022-11-28T01:00:40.118Z,4.93
2022-11-28T01:03:06.751Z,4.85
2022-11-28T01:05:40.189Z,4.75
2022-11-28T01:08:06.805Z,5.00
2022-11-28T01:10:33.358Z,4.88
2022-11-28T01:12:59.898Z,4.90
2022-11-28T01:15:26.615Z,4.70
2022-11-28T01:17:53.206Z,4.88
2022-11-28T01:20:19.823Z,4.68
2022-11-28T01:22:47.777Z,5.43
2022-11-28T01:25:14.432Z,5.00
2022-11-28T01:27:41.042Z,4.93
2022-11-28T01:30:08.384Z,4.43
2022-11-28T01:32:34.973Z,4.80
2022-11-28T01:35:01.470Z,5.05
2022-11-28T01:37:28.961Z,4.97
2022-11-28T01:39:56.876Z,5.43
2022-11-28T01:42:23.815Z,5.13
2022-11-28T01:45:08.118Z,5.10
2022-11-28T01:47:35.461Z,5.80
2022-11-28T01:50:05.338Z,5.28
2022-11-28T01:52:33.735Z,5.70
2022-11-28T01:55:02.992Z,5.22
2022-11-28T01:57:29.655Z,5.95
2022-11-28T02:00:01.853Z,5.28
2022-11-28T02:02:44.050Z,5.18
2022-11-28T02:05:10.702Z,5.13
2022-11-28T02:07:38.063Z,5.43
2022-11-28T02:10:09.688Z,5.25
2022-11-28T02:13:02.889Z,5.07
2022-11-28T02:15:46.555Z,5.28
2022-11-28T02:18:28.952Z,5.13
2022-11-28T02:21:05.982Z,6.05
2022-11-28T02:23:49.928Z,5.32
2022-11-28T02:26:44.139Z,5.38
2022-11-28T02:29:34.183Z,5.50
2022-11-28T02:32:18.380Z,6.30
2022-11-28T02:34:54.815Z,5.63
2022-11-28T02:37:29.867Z,5.18
2022-11-28T02:40:07.427Z,5.43
2022-11-28T02:42:47.225Z,6.00
2022-11-28T02:45:23.515Z,5.32
2022-11-28T02:47:58.880Z,5.80
2022-11-28T02:50:30.369Z,4.93
2022-11-28T02:53:03.441Z,5.55
2022-11-28T02:55:30.901Z,5.72
2022-11-28T02:57:57.441Z,5.57
2022-11-28T03:00:28.180Z,5.80
2022-11-28T03:03:11.671Z,6.05
2022-11-28T03:05:44.012Z,5.43
2022-11-28T03:08:24.819Z,5.63
2022-11-28T03:10:57.334Z,6.45
2022-11-28T03:13:32.655Z,6.03
2022-11-28T03:16:06.331Z,5.85
2022-11-28T03:18:39.348Z,5.93
2022-11-28T03:21:13.411Z,6.20
2022-11-28T03:23:44.612Z,6.10
2022-11-28T03:26:18.794Z,5.95
2022-11-28T03:28:50.410Z,5.68
2022-11-28T03:31:21.830Z,5.88
2022-11-28T03:33:53.721Z,5.80
2022-11-28T03:36:25.000Z,5.82
2022-11-28T03:38:56.919Z,5.85
2022-11-28T03:43:57.504Z,5.28
2022-11-28T03:46:30.896Z,5.75
2022-11-28T03:49:00.713Z,5.63
2022-11-28T03:51:32.842Z,5.63
2022-11-28T03:54:04.265Z,6.22
2022-11-28T03:56:36.783Z,5.78
2022-11-28T03:59:10.270Z,5.20
2022-11-28T04:01:47.892Z,5.43
2022-11-28T04:04:22.677Z,5.43
2022-11-28T04:06:53.802Z,6.07
2022-11-28T04:09:32.602Z,5.90
2022-11-28T04:12:07.734Z,5.28
2022-11-28T04:14:39.634Z,5.35
2022-11-28T04:19:43.802Z,5.78
2022-11-28T04:22:15.971Z,5.70
2022-11-28T04:24:49.064Z,5.38
2022-11-28T04:27:19.474Z,5.70
2022-11-28T04:29:50.146Z,5.35
2022-11-28T04:32:19.363Z,5.10
2022-11-28T04:34:53.569Z,5.70
2022-11-28T04:37:22.894Z,5.45
2022-11-28T04:39:51.296Z,5.78
2022-11-28T04:42:21.941Z,5.63
2022-11-28T04:44:52.738Z,5.55
2022-11-28T04:47:19.349Z,5.45
2022-11-28T04:49:47.251Z,6.30
2022-11-28T04:52:19.978Z,5.40
2022-11-28T04:54:55.811Z,5.75
2022-11-28T04:57:28.331Z,5.63
2022-11-28T04:59:56.315Z,5.60
2022-11-28T05:02:24.844Z,5.43
2022-11-28T05:04:52.931Z,5.78
2022-11-28T05:07:19.553Z,5.88
2022-11-28T05:09:46.210Z,5.82
2022-11-28T05:12:12.701Z,5.50
2022-11-28T05:14:39.497Z,6.20
2022-11-28T05:17:06.286Z,6.28
2022-11-28T05:19:33.056Z,5.65
2022-11-28T05:22:01.032Z,6.18
2022-11-28T05:24:32.059Z,5.70
2022-11-28T05:26:59.037Z,6.28
2022-11-28T05:29:25.625Z,6.10
2022-11-28T05:31:52.308Z,5.78
2022-11-28T05:34:18.848Z,6.57
2022-11-28T05:36:45.443Z,6.05
2022-11-28T05:39:13.295Z,5.60
2022-11-28T05:41:39.873Z,5.68
2022-11-28T05:44:06.579Z,5.60
2022-11-28T05:46:33.285Z,5.72
2022-11-28T05:48:59.813Z,6.40
2022-11-28T05:51:26.438Z,5.43
2022-11-28T05:53:53.001Z,6.25
2022-11-28T05:56:21.025Z,6.10
2022-11-28T05:58:47.552Z,5.72
2022-11-28T06:01:15.733Z,5.97
2022-11-28T06:03:42.371Z,5.82
2022-11-28T06:06:12.704Z,6.28
2022-11-28T06:08:39.256Z,6.50
2022-11-28T06:11:06.478Z,5.20
2022-11-28T06:13:34.370Z,6.00
2022-11-28T06:16:00.938Z,7.15
2022-11-28T06:18:27.676Z,5.72
2022-11-28T06:20:54.197Z,6.15
2022-11-28T06:23:20.701Z,5.63
2022-11-28T06:25:47.218Z,5.85
2022-11-28T06:28:13.886Z,6.32
2022-11-28T06:30:43.078Z,6.32
2022-11-28T06:33:09.585Z,6.32
2022-11-28T06:35:36.117Z,5.53
2022-11-28T06:38:02.638Z,6.22
2022-11-28T06:40:29.162Z,6.95
2022-11-28T06:42:55.702Z,7.82
2022-11-28T06:45:22.239Z,6.40
2022-11-28T06:47:50.075Z,6.22
2022-11-28T06:50:16.729Z,7.68
2022-11-28T06:52:43.256Z,6.68
2022-11-28T06:55:09.951Z,6.00
2022-11-28T06:57:36.637Z,10.00
2022-11-28T07:00:04.228Z,6.78
2022-11-28T07:02:30.810Z,7.82
2022-11-28T07:04:58.730Z,9.25
2022-11-28T07:07:25.344Z,6.53
2022-11-28T07:09:51.882Z,6.43
2022-11-28T07:12:18.878Z,6.28
2022-11-28T07:14:45.384Z,6.20
2022-11-28T07:17:11.972Z,6.25
2022-11-28T07:19:38.509Z,8.68
2022-11-28T07:22:06.388Z,6.25
2022-11-28T07:24:33.006Z,6.45
2022-11-28T07:26:59.530Z,7.22
2022-11-28T07:29:27.479Z,6.78
2022-11-28T07:31:54.543Z,8.07
2022-11-28T07:34:21.350Z,9.43
2022-11-28T07:36:47.868Z,7.82
2022-11-28T07:39:16.513Z,10.18
2022-11-28T07:41:43.200Z,7.95
2022-11-28T07:44:11.052Z,7.85
2022-11-28T07:46:39.298Z,6.03
2022-11-28T07:49:07.101Z,6.20
2022-11-28T07:51:34.212Z,6.85
2022-11-28T07:54:01.393Z,6.15
2022-11-28T07:56:57.036Z,6.28
2022-11-28T07:59:18.566Z,5.85
2022-11-28T08:01:45.157Z,6.35
2022-11-28T08:04:11.886Z,5.85
2022-11-28T08:06:41.236Z,6.13
2022-11-28T08:09:08.752Z,6.32
2022-11-28T08:11:36.697Z,6.60
2022-11-28T08:14:04.279Z,6.65
2022-11-28T08:16:31.281Z,6.55
2022-11-28T08:19:00.747Z,6.40
2022-11-28T08:21:28.792Z,6.35
2022-11-28T08:23:58.097Z,6.88
2022-11-28T08:26:30.412Z,6.65
2022-11-28T08:28:59.638Z,6.35
2022-11-28T08:31:28.747Z,7.28
2022-11-28T08:33:56.976Z,6.95
2022-11-28T08:36:23.878Z,6.57
2022-11-28T08:39:09.388Z,7.10
2022-11-28T08:41:39.045Z,6.63
2022-11-28T08:44:06.897Z,6.75
2022-11-28T08:46:33.541Z,6.38
2022-11-28T08:49:00.042Z,6.65
2022-11-28T08:51:27.054Z,6.45
2022-11-28T08:53:59.059Z,7.15
2022-11-28T08:56:26.209Z,6.68
2022-11-28T08:58:52.715Z,7.90
2022-11-28T09:01:23.233Z,8.02
2022-11-28T09:03:50.904Z,7.70
2022-11-28T09:06:18.207Z,6.53
2022-11-28T09:08:45.228Z,7.10
2022-11-28T09:11:13.914Z,6.47
2022-11-28T09:13:40.485Z,6.75
2022-11-28T09:16:07.705Z,7.15
2022-11-28T09:18:36.444Z,6.63
2022-11-28T09:21:05.872Z,7.15
2022-11-28T09:23:32.429Z,7.20
2022-11-28T09:25:58.985Z,6.80
2022-11-28T09:28:26.316Z,6.40
2022-11-28T09:30:59.819Z,7.85
2022-11-28T09:33:26.533Z,6.55
2022-11-28T09:35:54.525Z,6.47
2022-11-28T09:38:21.161Z,6.00
2022-11-28T09:40:48.109Z,7.00
2022-11-28T09:43:18.661Z,6.90
2022-11-28T09:45:49.005Z,7.13
2022-11-28T09:48:26.041Z,7.80
2022-11-28T09:50:59.767Z,7.80
2022-11-28T09:53:30.633Z,7.97
2022-11-28T09:56:00.084Z,7.63
2022-11-28T09:58:33.305Z,7.22
2022-11-28T10:01:11.021Z,6.32
2022-11-28T10:03:43.330Z,6.03
2022-11-28T10:06:18.486Z,6.38
2022-11-28T10:09:00.184Z,6.80
2022-11-28T10:11:38.173Z,6.38
2022-11-28T10:14:18.341Z,6.70
2022-11-28T10:16:53.175Z,6.15
2022-11-28T10:19:56.166Z,6.78
2022-11-28T10:22:20.293Z,6.80
2022-11-28T10:24:52.174Z,6.68
2022-11-28T10:30:00.777Z,7.18
2022-11-28T10:32:33.117Z,6.10
2022-11-28T10:35:03.541Z,6.35
2022-11-28T10:37:34.932Z,6.40
2022-11-28T10:40:16.340Z,7.20
2022-11-28T10:42:51.607Z,6.53
2022-11-28T10:45:24.894Z,6.93
2022-11-28T10:48:38.094Z,6.78
2022-11-28T10:51:12.217Z,5.93
2022-11-28T10:53:51.912Z,6.55
2022-11-28T10:56:33.245Z,6.90
2022-11-28T10:59:09.484Z,7.32
2022-11-28T11:01:39.166Z,6.35
2022-11-28T11:04:06.824Z,7.05
2022-11-28T11:06:41.765Z,5.90
2022-11-28T11:09:21.615Z,6.00
2022-11-28T11:11:55.029Z,5.97
2022-11-28T11:14:34.079Z,6.20
2022-11-28T11:17:00.697Z,5.88
2022-11-28T11:19:29.291Z,5.88
2022-11-28T11:22:01.346Z,6.03
2022-11-28T11:24:30.118Z,6.10
2022-11-28T11:27:04.538Z,6.70
2022-11-28T11:29:33.107Z,6.82
2022-11-28T11:31:59.652Z,6.85
2022-11-28T11:34:26.362Z,6.72
2022-11-28T11:37:27.727Z,7.18
2022-11-28T11:39:55.695Z,6.60
2022-11-28T11:42:24.768Z,6.82
2022-11-28T11:44:51.458Z,6.95
2022-11-28T11:47:18.809Z,6.15
2022-11-28T11:49:47.357Z,6.25
2022-11-28T11:52:17.689Z,6.25
2022-11-28T11:54:57.476Z,6.00
2022-11-28T11:57:33.016Z,6.65
2022-11-28T12:00:05.663Z,6.20
2022-11-28T12:02:43.716Z,6.70
2022-11-28T12:05:14.206Z,6.35
2022-11-28T12:07:48.249Z,6.28
2022-11-28T12:10:21.126Z,6.28
2022-11-28T12:12:47.826Z,6.00
2022-11-28T12:15:21.330Z,5.80
2022-11-28T12:18:00.297Z,7.25
2022-11-28T12:20:41.677Z,5.93
2022-11-28T12:23:22.976Z,6.35
2022-11-28T12:25:56.195Z,5.80
2022-11-28T12:28:36.110Z,6.07
2022-11-28T12:31:11.444Z,6.30
2022-11-28T12:33:47.442Z,5.57
2022-11-28T12:36:21.005Z,5.90
2022-11-28T12:38:58.939Z,6.00
2022-11-28T12:41:55.724Z,6.30
2022-11-28T12:44:29.413Z,5.53
2022-11-28T12:47:07.820Z,5.68
2022-11-28T12:49:39.750Z,5.22
2022-11-28T12:55:17.235Z,5.47
2022-11-28T12:57:47.897Z,5.47
2022-11-28T13:00:18.335Z,5.60
2022-11-28T13:02:55.781Z,5.85
2022-11-28T13:05:31.972Z,5.40
2022-11-28T13:08:20.160Z,5.60
2022-11-28T13:10:56.080Z,6.15
2022-11-28T13:13:32.018Z,5.13
2022-11-28T13:16:04.726Z,7.05
2022-11-28T13:18:56.961Z,5.50
2022-11-28T13:21:32.064Z,5.40
2022-11-28T13:24:07.206Z,5.28
2022-11-28T13:26:46.356Z,5.20
2022-11-28T13:29:25.208Z,6.03
2022-11-28T13:32:01.937Z,5.65
2022-11-28T13:34:30.155Z,5.20
2022-11-28T13:39:58.410Z,5.03
2022-11-28T13:43:02.375Z,5.72
2022-11-28T13:45:31.948Z,5.60
2022-11-28T13:48:00.108Z,5.78
2022-11-28T13:50:59.079Z,6.57
2022-11-28T13:53:25.777Z,6.40
2022-11-28T13:56:13.517Z,6.95
2022-11-28T13:58:46.385Z,5.60
2022-11-28T14:01:18.898Z,7.43
2022-11-28T14:03:48.311Z,6.22
2022-11-28T14:06:17.787Z,6.05
2022-11-28T14:08:46.845Z,6.55
2022-11-28T14:11:48.146Z,6.55
2022-11-28T14:14:43.916Z,5.80
2022-11-28T14:17:26.502Z,6.13
2022-11-28T14:20:12.863Z,7.95
2022-11-28T14:22:53.400Z,7.78
2022-11-28T14:25:24.409Z,6.10
2022-11-28T14:27:54.236Z,5.77
2022-11-28T14:30:31.957Z,5.90
2022-11-28T14:33:02.811Z,7.80
2022-11-28T14:36:14.871Z,7.43
2022-11-28T14:38:46.077Z,7.00
2022-11-28T14:41:14.606Z,6.90
2022-11-28T14:43:44.690Z,16.70
2022-11-28T14:46:29.938Z,15.55
2022-11-28T14:49:20.692Z,6.53
2022-11-28T14:52:38.830Z,6.28
2022-11-28T14:55:17.625Z,5.82
2022-11-28T14:57:54.828Z,6.32
2022-11-28T15:00:24.071Z,5.15
2022-11-28T15:03:03.444Z,5.40
2022-11-28T15:05:47.622Z,5.20
2022-11-28T15:08:40.227Z,5.10
2022-11-28T15:11:21.118Z,6.10
2022-11-28T15:14:03.038Z,7.35
2022-11-28T15:16:32.662Z,6.43
2022-11-28T15:19:06.377Z,6.22
2022-11-28T15:21:43.849Z,5.38
2022-11-28T15:24:28.826Z,6.07
2022-11-28T15:26:57.991Z,6.03
2022-11-28T15:29:27.604Z,6.88
2022-11-28T15:31:56.521Z,6.95
2022-11-28T15:34:28.926Z,6.20
2022-11-28T15:36:58.872Z,6.25
2022-11-28T15:39:30.587Z,5.95
2022-11-28T15:44:25.265Z,5.60
2022-11-28T15:46:52.413Z,6.07
2022-11-28T15:49:24.427Z,5.78
2022-11-28T15:51:52.836Z,6.45
2022-11-28T15:54:38.801Z,5.97
2022-11-28T15:57:06.275Z,5.10
2022-11-28T15:59:33.972Z,6.00
2022-11-28T16:02:11.394Z,5.47
2022-11-28T16:04:38.494Z,6.25
2022-11-28T16:07:05.879Z,5.88
2022-11-28T16:09:34.782Z,6.13
2022-11-28T16:12:04.998Z,5.43
2022-11-28T16:14:34.310Z,5.18
2022-11-28T16:17:03.216Z,5.20
2022-11-28T16:19:33.638Z,4.50
2022-11-28T16:22:02.189Z,4.97
2022-11-28T16:24:37.026Z,4.80
2022-11-28T16:27:06.650Z,4.93
2022-11-28T16:29:35.518Z,5.07
2022-11-28T16:32:19.538Z,5.00
2022-11-28T16:34:48.747Z,4.93
2022-11-28T16:37:20.593Z,4.45
2022-11-28T16:42:16.900Z,4.32
2022-11-28T16:44:43.627Z,4.60
2022-11-28T16:47:24.978Z,4.72
2022-11-28T16:50:16.113Z,4.25
2022-11-28T16:52:48.037Z,4.80
2022-11-28T16:55:39.858Z,4.55
2022-11-28T16:58:16.656Z,4.22
2022-11-28T17:00:45.720Z,4.38
2022-11-28T17:03:40.965Z,4.70
2022-11-28T17:06:15.885Z,5.68
2022-11-28T17:08:42.508Z,6.20
2022-11-28T17:11:09.071Z,6.28
2022-11-28T17:13:37.040Z,6.78
2022-11-28T17:16:03.701Z,7.15
2022-11-28T17:18:30.278Z,6.20
2022-11-28T17:20:56.801Z,8.07
2022-11-28T17:23:23.912Z,7.78
2022-11-28T17:25:50.577Z,10.90
2022-11-28T17:28:21.562Z,9.95
2022-11-28T17:30:51.245Z,10.07
2022-11-28T17:33:17.915Z,7.53
2022-11-28T17:35:45.014Z,7.35
2022-11-28T17:38:11.568Z,7.68
2022-11-28T17:40:38.330Z,8.00
2022-11-28T17:43:04.983Z,7.20
2022-11-28T17:45:35.150Z,7.10
2022-11-28T17:48:03.428Z,7.38
2022-11-28T17:50:30.331Z,7.53
2022-11-28T17:52:57.231Z,6.63
2022-11-28T17:55:23.772Z,6.30
2022-11-28T17:57:50.314Z,5.95
2022-11-28T18:00:17.262Z,5.80
2022-11-28T18:02:44.827Z,5.30
2022-11-28T18:05:12.700Z,5.07
2022-11-28T18:07:40.228Z,5.10
2022-11-28T18:10:11.091Z,5.55
2022-11-28T18:12:38.613Z,5.03
2022-11-28T18:15:07.731Z,4.82
2022-11-28T18:17:34.353Z,5.68
2022-11-28T18:20:02.465Z,5.32
2022-11-28T18:22:31.345Z,4.60
2022-11-28T18:24:57.849Z,5.68
2022-11-28T18:27:24.586Z,5.97
2022-11-28T18:29:51.414Z,7.38
2022-11-28T18:32:17.990Z,7.35
2022-11-28T18:34:44.537Z,8.40
2022-11-28T18:37:11.270Z,11.13
2022-11-28T18:39:39.158Z,10.75
2022-11-28T18:42:05.717Z,9.18
2022-11-28T18:44:32.302Z,8.23
2022-11-28T18:46:58.912Z,7.43
2022-11-28T18:49:25.607Z,8.05
2022-11-28T18:51:54.565Z,8.38
2022-11-28T18:54:22.549Z,7.20
2022-11-28T18:56:50.499Z,6.10
2022-11-28T18:59:17.553Z,7.20
2022-11-28T19:01:44.205Z,6.32
2022-11-28T19:04:12.385Z,5.80
2022-11-28T19:06:40.584Z,7.43
2022-11-28T19:09:10.102Z,6.90
2022-11-28T19:11:37.488Z,7.07
2022-11-28T19:14:05.751Z,7.45
2022-11-28T19:16:35.022Z,7.78
2022-11-28T19:19:03.005Z,7.07
2022-11-28T19:21:30.960Z,6.88
2022-11-28T19:23:58.207Z,5.97
2022-11-28T19:26:26.591Z,6.28
2022-11-28T19:28:54.068Z,5.75
2022-11-28T19:31:23.668Z,5.38
2022-11-28T19:34:00.258Z,5.25
2022-11-28T19:36:28.045Z,7.65
2022-11-28T19:38:54.626Z,8.18
2022-11-28T19:41:22.886Z,8.23
2022-11-28T19:43:50.026Z,7.63
2022-11-28T19:46:18.855Z,9.57
2022-11-28T19:48:47.403Z,8.35
2022-11-28T19:51:14.258Z,8.63
2022-11-28T19:53:42.477Z,8.20
2022-11-28T19:56:12.306Z,9.07
2022-11-28T19:58:40.145Z,9.23
2022-11-28T20:01:09.371Z,9.23
2022-11-28T20:03:37.757Z,9.40
2022-11-28T20:06:09.161Z,8.20
2022-11-28T20:11:08.385Z,8.15
2022-11-28T20:13:35.000Z,7.15
2022-11-28T20:16:02.653Z,9.48
2022-11-28T20:18:29.230Z,10.18
2022-11-28T20:20:56.024Z,11.38
2022-11-28T20:23:23.955Z,13.45
2022-11-28T20:25:50.453Z,15.95
2022-11-28T20:28:17.534Z,11.23
2022-11-28T20:30:44.226Z,7.55
2022-11-28T20:33:11.180Z,7.65
2022-11-28T20:35:38.050Z,7.72
2022-11-28T20:38:04.615Z,7.03
2022-11-28T20:40:32.467Z,6.65
2022-11-28T20:42:59.040Z,6.20
2022-11-28T20:45:25.615Z,6.22
2022-11-28T20:47:52.184Z,6.70
2022-11-28T20:50:18.850Z,5.60
2022-11-28T20:52:45.396Z,7.38
2022-11-28T20:55:11.903Z,7.50
2022-11-28T20:57:39.807Z,8.27
2022-11-28T21:00:07.707Z,6.85
2022-11-28T21:02:34.325Z,5.20
2022-11-28T21:05:00.892Z,5.22
2022-11-28T21:07:27.473Z,5.68
2022-11-28T21:09:53.997Z,6.30
2022-11-28T21:12:21.217Z,6.85
2022-11-28T21:14:49.183Z,6.57
2022-11-28T21:17:15.726Z,5.65
2022-11-28T21:19:42.863Z,5.18
2022-11-28T21:22:09.612Z,5.85
2022-11-28T21:24:36.155Z,5.65
2022-11-28T21:27:02.906Z,5.57
2022-11-28T21:29:29.406Z,5.45
2022-11-28T21:31:57.351Z,5.35
2022-11-28T21:34:23.888Z,4.85
2022-11-28T21:36:50.458Z,5.07
2022-11-28T21:39:19.236Z,5.60
2022-11-28T21:41:45.962Z,5.57
2022-11-28T21:44:12.481Z,5.18
2022-11-28T21:46:39.086Z,5.30
2022-11-28T21:49:07.113Z,5.82
2022-11-28T21:51:38.360Z,5.63
2022-11-28T21:54:06.081Z,5.68
2022-11-28T21:56:33.119Z,5.38
2022-11-28T21:58:59.754Z,5.18
2022-11-28T22:01:26.335Z,5.45
2022-11-28T22:03:54.428Z,5.90
2022-11-28T22:06:25.810Z,5.55
2022-11-28T22:08:54.375Z,6.03
2022-11-28T22:11:22.434Z,5.68
2022-11-28T22:13:49.273Z,5.45
2022-11-28T22:16:17.702Z,6.10
2022-11-28T22:18:44.406Z,5.72
2022-11-28T22:21:43.330Z,6.25
2022-11-28T22:23:59.848Z,7.25
2022-11-28T22:26:26.370Z,7.93
2022-11-28T22:28:53.812Z,8.15
2022-11-28T22:31:23.053Z,7.07
2022-11-28T22:33:50.433Z,7.63
2022-11-28T22:36:20.162Z,6.63
2022-11-28T22:38:48.668Z,7.20
2022-11-28T22:41:24.863Z,6.28
2022-11-28T22:43:55.246Z,6.65
2022-11-28T22:46:22.317Z,6.07
2022-11-28T22:48:48.999Z,6.65
2022-11-28T22:51:18.528Z,5.90
2022-11-28T22:53:45.917Z,6.30
2022-11-28T22:56:15.614Z,6.40
2022-11-28T22:58:44.967Z,5.93
2022-11-28T23:01:15.283Z,5.80
2022-11-28T23:03:42.239Z,5.30
2022-11-28T23:06:11.807Z,5.78
2022-11-28T23:08:39.421Z,5.45
2022-11-28T23:11:07.282Z,5.90
2022-11-28T23:13:34.551Z,6.53
2022-11-28T23:16:15.203Z,6.18
2022-11-28T23:18:43.493Z,5.80
2022-11-28T23:21:10.864Z,5.57
2022-11-28T23:23:37.992Z,6.15
2022-11-28T23:26:06.639Z,5.47
2022-11-28T23:28:34.090Z,5.25
2022-11-28T23:31:05.027Z,4.57
2022-11-28T23:33:33.746Z,5.05
2022-11-28T23:36:00.641Z,5.38
2022-11-28T23:38:27.193Z,5.03
2022-11-28T23:40:56.685Z,5.18
2022-11-28T23:43:23.333Z,4.70
2022-11-28T23:45:49.861Z,5.45
2022-11-28T23:48:16.513Z,5.30
2022-11-28T23:50:44.456Z,5.85
2022-11-28T23:53:11.037Z,5.15
2022-11-28T23:55:37.601Z,5.32
2022-11-28T23:58:04.166Z,5.03
